Terminal Aerodrome Forecast
Issued by NWS

Home | Current Version | Previous Version | Text Only | Print | Product List | Glossary On
Versions: 1 2 3 4 5 6 7 8 9 10 11 12 13 14 15
000
FTUS45 KRIW 060500
TAFJAC
TAF
KJAC 060527Z 0606/0706 36006KT P6SM FEW110
     FM061400 VRB05KT P6SM SCT100
     FM061900 20010KT P6SM SCT100
     FM070500 36006KT P6SM SCT100
      AMD LTD TO CLD VIS AND WIND=

USA.gov is the U.S. government's official web portal to all federal, state and local government web resources and services.